Aviation Digital Data Service (ADDS)

Output produced by METARs form (0507 UTC 21 January 2019)
found at http://www.aviationweather.gov/metar/data/
 
Forecast for: LIME (BERGAMO/ORIO SER, IT)
Text: TAF LIME 202300Z 2100/2124 VRB05KT 8000 NSC
Forecast period: 0000 UTC 21 January 2019 to 0000 UTC 22 January 2019
Forecast type: FROM: standard forecast or significant change
Winds: variable direction winds at 6 MPH (5 knots; 2.6 m/s)
Visibility: 5 miles (8 km)
Ceiling: unknown
Clouds: missing
Weather: no significant weather forecast for this period